Time;durP1;ratioP1;P1;durP2;ratioP2;P2;SDS_P1;SDS_P2;PMS_P1;PMS_P2;Temp;Humidity;BMP_temperature;BMP_pressure;BME280_temperature;BME280_humidity;BME280_pressure;Samples;Min_cycle;Max_cycle;Signal;HPM_P1;HPM_P2
2022/04/28 00:00:50;;;;;;;6.13;3.10;;;22.10;77.10;;;;;;5055687;23;21015;-61
2022/04/28 00:02:53;;;;;;;4.03;2.95;;;22.10;77.00;;;;;;5061683;23;20028;-61
2022/04/28 00:04:55;;;;;;;3.83;2.70;;;22.10;77.00;;;;;;5060401;23;20754;-62
2022/04/28 00:06:58;;;;;;;4.55;3.03;;;22.10;77.10;;;;;;5058444;23;20033;-61
2022/04/28 00:09:00;;;;;;;4.00;2.92;;;22.20;77.10;;;;;;5062953;23;20851;-61
2022/04/28 00:11:02;;;;;;;4.35;3.42;;;22.20;77.00;;;;;;5068146;23;20482;-65
2022/04/28 00:13:06;;;;;;;3.85;3.00;;;22.20;77.00;;;;;;5086856;23;20729;-64
2022/04/28 00:15:09;;;;;;;3.78;2.88;;;22.20;77.10;;;;;;5063017;23;20033;-63
2022/04/28 00:17:12;;;;;;;4.70;3.13;;;22.20;77.10;;;;;;5063949;23;20036;-63
2022/04/28 00:19:14;;;;;;;5.68;2.80;;;22.20;77.10;;;;;;5065654;23;21224;-64
2022/04/28 00:21:16;;;;;;;4.20;3.08;;;22.20;77.00;;;;;;5062384;23;20242;-64
2022/04/28 00:23:19;;;;;;;5.25;2.45;;;22.20;77.00;;;;;;5062205;23;20036;-63
2022/04/28 00:25:22;;;;;;;4.13;2.50;;;22.20;77.00;;;;;;5068404;23;20036;-64
2022/04/28 00:27:25;;;;;;;4.88;3.00;;;22.20;77.00;;;;;;5062926;23;20033;-65
2022/04/28 00:29:27;;;;;;;4.97;2.85;;;22.20;77.00;;;;;;5058806;23;20040;-65
2022/04/28 00:31:29;;;;;;;4.97;2.70;;;22.20;77.00;;;;;;5068107;23;20039;-62
2022/04/28 00:33:31;;;;;;;3.50;2.40;;;22.20;76.90;;;;;;5060566;23;20033;-63
2022/04/28 00:35:34;;;;;;;3.92;2.90;;;22.20;76.90;;;;;;5060495;23;20032;-63
2022/04/28 00:37:36;;;;;;;4.72;2.40;;;22.20;77.00;;;;;;5065851;23;20056;-64
2022/04/28 00:39:39;;;;;;;3.08;2.50;;;22.20;77.60;;;;;;5073376;23;20048;-64
2022/04/28 00:41:41;;;;;;;3.50;2.47;;;22.20;76.40;;;;;;5059308;23;20098;-64
2022/04/28 00:43:51;;;;;;;3.10;2.30;;;22.20;77.00;;;;;;5066685;23;20036;-66
2022/04/28 00:45:53;;;;;;;3.10;2.17;;;22.20;77.00;;;;;;5063523;23;20067;-64
2022/04/28 00:52:36;;;;;;;4.78;2.33;;;22.20;77.20;;;;;;5063874;23;20029;-61
2022/04/28 00:54:38;;;;;;;5.03;2.53;;;22.20;77.30;;;;;;5064584;23;20573;-61
2022/04/28 00:56:41;;;;;;;3.10;2.25;;;22.30;77.30;;;;;;5071727;23;20908;-60
2022/04/28 00:58:43;;;;;;;4.00;2.60;;;22.30;77.20;;;;;;5063696;23;20025;-60
2022/04/28 01:00:45;;;;;;;3.67;2.40;;;22.30;77.20;;;;;;5052605;23;20033;-61
2022/04/28 01:02:48;;;;;;;4.28;2.25;;;22.30;77.10;;;;;;5074631;23;21188;-65
2022/04/28 01:04:50;;;;;;;2.78;2.30;;;22.30;77.00;;;;;;5071352;23;20033;-64
2022/04/28 01:06:52;;;;;;;5.18;2.60;;;22.30;76.90;;;;;;5070668;23;20112;-63
2022/04/28 01:09:00;;;;;;;2.70;2.25;;;22.30;76.90;;;;;;5072735;23;20032;-63
2022/04/28 01:11:02;;;;;;;3.08;1.90;;;22.40;77.10;;;;;;5072995;23;20817;-64
2022/04/28 01:13:05;;;;;;;2.80;1.90;;;22.40;77.10;;;;;;5069032;23;20140;-63
2022/04/28 01:15:08;;;;;;;4.03;2.10;;;22.40;77.20;;;;;;5071532;23;20056;-62
2022/04/28 01:17:10;;;;;;;3.03;1.88;;;22.40;77.00;;;;;;5074017;23;20032;-63
2022/04/28 01:19:13;;;;;;;3.72;1.90;;;22.40;77.00;;;;;;5073488;23;20053;-63
2022/04/28 01:21:15;;;;;;;4.65;2.00;;;22.50;77.00;;;;;;5065118;23;20033;-64
2022/04/28 01:23:20;;;;;;;1.63;1.50;;;22.50;76.90;;;;;;5068042;23;20029;-63
2022/04/28 01:25:22;;;;;;;6.25;1.67;;;22.50;76.90;;;;;;5071686;23;20113;-63
2022/04/28 01:27:26;;;;;;;2.33;1.58;;;22.50;76.80;;;;;;5070466;23;20916;-64
2022/04/28 01:29:31;;;;;;;2.47;1.70;;;22.50;76.70;;;;;;5066693;23;20033;-65
2022/04/28 01:31:33;;;;;;;2.60;1.63;;;22.50;76.70;;;;;;5068707;23;20883;-65
2022/04/28 01:33:35;;;;;;;2.17;1.45;;;22.60;76.70;;;;;;5072397;23;20040;-64
2022/04/28 01:35:37;;;;;;;3.22;1.60;;;22.60;76.70;;;;;;5071340;23;20040;-63
2022/04/28 01:37:39;;;;;;;2.53;1.35;;;22.60;76.60;;;;;;5067296;23;20117;-64
2022/04/28 01:39:41;;;;;;;1.60;1.13;;;22.60;76.70;;;;;;5070524;23;20044;-65
2022/04/28 01:41:43;;;;;;;1.50;1.20;;;22.60;76.70;;;;;;5070989;23;20105;-62
2022/04/28 01:43:46;;;;;;;1.95;1.40;;;22.60;76.60;;;;;;5066750;23;20476;-62
2022/04/28 01:45:48;;;;;;;2.97;1.20;;;22.70;76.70;;;;;;5067991;23;20422;-62
2022/04/28 01:47:50;;;;;;;7.20;1.35;;;22.70;76.60;;;;;;5074613;23;20847;-64
2022/04/28 01:49:52;;;;;;;1.65;1.10;;;22.70;76.70;;;;;;5068550;23;21142;-64
2022/04/28 01:56:35;;;;;;;2.42;1.35;;;22.70;76.60;;;;;;5063800;23;20411;-62
2022/04/28 01:58:37;;;;;;;2.83;1.30;;;22.80;76.80;;;;;;5060495;23;20984;-62
2022/04/28 02:00:39;;;;;;;1.50;1.10;;;22.80;76.60;;;;;;5062969;23;20029;-63
2022/04/28 02:02:41;;;;;;;1.00;0.80;;;22.90;76.60;;;;;;5071112;23;20052;-65
2022/04/28 02:04:44;;;;;;;1.63;1.00;;;22.90;76.60;;;;;;5066789;23;20886;-64
2022/04/28 02:06:46;;;;;;;2.20;1.02;;;22.90;76.60;;;;;;5085326;23;20262;-62
2022/04/28 02:08:48;;;;;;;1.67;1.00;;;22.90;76.60;;;;;;5068757;23;20033;-61
2022/04/28 02:10:50;;;;;;;4.18;0.90;;;22.90;76.60;;;;;;5093689;23;20549;-62
2022/04/28 02:12:55;;;;;;;3.97;1.40;;;22.90;76.50;;;;;;5064815;23;20028;-63
2022/04/28 02:14:57;;;;;;;1.33;0.90;;;23.00;76.60;;;;;;5067415;23;20621;-68
2022/04/28 02:17:00;;;;;;;6.43;1.17;;;23.00;76.60;;;;;;5048104;23;20063;-76
2022/04/28 02:19:03;;;;;;;4.90;1.15;;;23.00;76.80;;;;;;5067838;23;20025;-64
2022/04/28 02:21:05;;;;;;;7.38;1.95;;;23.00;77.10;;;;;;5074222;23;20955;-72
2022/04/28 02:23:07;;;;;;;6.72;1.95;;;23.00;77.00;;;;;;5070694;23;20087;-73
2022/04/28 02:25:09;;;;;;;5.53;2.03;;;23.10;77.70;;;;;;5072494;23;20490;-66
2022/04/28 02:27:11;;;;;;;6.03;1.90;;;23.10;77.90;;;;;;5068418;23;20056;-65
2022/04/28 02:29:14;;;;;;;5.55;1.85;;;23.20;78.00;;;;;;5070508;23;20032;-66
2022/04/28 02:31:16;;;;;;;2.75;1.40;;;23.20;78.00;;;;;;5071125;23;20029;-65
2022/04/28 02:33:19;;;;;;;2.97;1.38;;;23.20;77.80;;;;;;5069489;23;21057;-65
2022/04/28 02:35:23;;;;;;;2.77;1.70;;;23.20;77.60;;;;;;5066222;23;20036;-67
2022/04/28 02:37:26;;;;;;;1.70;1.10;;;23.20;77.50;;;;;;5074648;23;20259;-64
2022/04/28 02:39:28;;;;;;;2.25;1.00;;;23.20;77.40;;;;;;5082356;23;20025;-67
2022/04/28 02:41:30;;;;;;;4.20;1.15;;;23.30;77.30;;;;;;5072566;23;20033;-64
2022/04/28 02:43:32;;;;;;;3.58;1.23;;;23.30;77.10;;;;;;5073925;23;20036;-65
2022/04/28 02:45:34;;;;;;;1.70;1.20;;;23.30;76.70;;;;;;5079349;23;20036;-66
2022/04/28 02:47:37;;;;;;;2.60;1.17;;;23.30;76.80;;;;;;5076020;23;20705;-63
2022/04/28 02:49:39;;;;;;;2.08;1.40;;;23.30;76.70;;;;;;5043576;23;20033;-66
2022/04/28 02:52:14;;;;;;;3.28;1.10;;;23.30;76.60;;;;;;5086631;23;20025;-65
2022/04/28 02:54:17;;;;;;;1.23;1.00;;;23.30;76.60;;;;;;5089484;23;20478;-65
2022/04/28 02:56:19;;;;;;;1.27;1.02;;;23.30;76.50;;;;;;5083385;23;20140;-66
2022/04/28 02:58:21;;;;;;;0.70;0.60;;;23.30;76.80;;;;;;5091891;23;20136;-68
2022/04/28 03:00:24;;;;;;;1.80;1.05;;;23.40;76.70;;;;;;5085416;23;20112;-62
2022/04/28 03:02:26;;;;;;;1.48;0.77;;;23.40;76.80;;;;;;5076611;23;20039;-66
2022/04/28 03:04:28;;;;;;;1.15;0.82;;;23.40;76.90;;;;;;5102376;23;20720;-66
2022/04/28 03:11:11;;;;;;;1.05;0.70;;;23.50;76.70;;;;;;5082678;23;20021;-61
2022/04/28 03:13:14;;;;;;;1.20;0.90;;;23.50;76.60;;;;;;5070048;23;20108;-62
2022/04/28 03:15:16;;;;;;;3.53;0.85;;;23.50;76.60;;;;;;5070809;23;20541;-61
2022/04/28 03:17:18;;;;;;;2.55;0.80;;;23.50;76.50;;;;;;5065137;23;20206;-66
2022/04/28 03:19:21;;;;;;;0.65;0.52;;;23.50;76.40;;;;;;5070276;23;20386;-64
2022/04/28 03:21:23;;;;;;;1.45;0.80;;;23.50;76.40;;;;;;5069936;23;20471;-63
2022/04/28 03:23:25;;;;;;;1.77;0.77;;;23.60;76.40;;;;;;5060635;23;20055;-64
2022/04/28 03:25:27;;;;;;;0.52;0.52;;;23.60;76.40;;;;;;5065759;23;20033;-65
2022/04/28 03:27:32;;;;;;;3.53;0.90;;;23.60;76.40;;;;;;5066304;23;20755;-66
2022/04/28 03:29:37;;;;;;;2.53;0.85;;;23.60;76.40;;;;;;5068138;23;20916;-64
2022/04/28 03:31:39;;;;;;;1.98;0.90;;;23.60;76.30;;;;;;5064766;23;20082;-62
2022/04/28 03:33:41;;;;;;;1.30;0.73;;;23.60;76.30;;;;;;5062670;23;20040;-60
2022/04/28 03:35:44;;;;;;;2.05;0.80;;;23.60;76.20;;;;;;5072730;23;20044;-60
2022/04/28 03:37:49;;;;;;;1.17;0.80;;;23.60;76.20;;;;;;5066181;23;20240;-59
2022/04/28 03:39:51;;;;;;;0.70;0.60;;;23.70;76.10;;;;;;5065590;23;20052;-61
2022/04/28 03:41:53;;;;;;;0.90;0.73;;;23.70;76.00;;;;;;5069576;23;20889;-63
2022/04/28 03:43:55;;;;;;;0.70;0.70;;;23.70;76.00;;;;;;5074306;23;20041;-63
2022/04/28 03:45:58;;;;;;;1.98;0.80;;;23.70;75.90;;;;;;5067122;23;20676;-62
2022/04/28 03:48:00;;;;;;;1.42;0.70;;;23.70;75.80;;;;;;5090111;23;20837;-63
2022/04/28 03:50:03;;;;;;;0.70;0.70;;;23.70;75.80;;;;;;5074460;23;20107;-63
2022/04/28 03:52:06;;;;;;;1.70;0.70;;;23.70;75.80;;;;;;5072830;23;21045;-63
2022/04/28 03:54:09;;;;;;;1.67;0.77;;;23.70;75.90;;;;;;5067289;23;20044;-63
2022/04/28 03:56:11;;;;;;;1.03;0.70;;;23.70;75.90;;;;;;5074067;23;20267;-61
2022/04/28 03:58:13;;;;;;;2.17;0.70;;;23.70;75.80;;;;;;5095698;23;20614;-62
2022/04/28 04:00:16;;;;;;;1.83;0.60;;;23.70;75.70;;;;;;5069010;23;20032;-63
2022/04/28 04:02:18;;;;;;;0.73;0.60;;;23.70;75.70;;;;;;5065440;23;20029;-63
2022/04/28 04:04:20;;;;;;;0.77;0.57;;;23.70;75.70;;;;;;5074059;23;20588;-61
2022/04/28 04:06:22;;;;;;;1.63;0.70;;;23.70;75.70;;;;;;5065837;23;20025;-62
2022/04/28 04:08:24;;;;;;;1.02;0.60;;;23.70;75.70;;;;;;5062728;23;20041;-62
2022/04/28 04:10:26;;;;;;;1.30;0.70;;;23.70;75.70;;;;;;5072423;23;20128;-62
2022/04/28 04:12:29;;;;;;;1.27;0.83;;;23.70;75.80;;;;;;5068440;23;20161;-64
2022/04/28 04:14:32;;;;;;;1.20;0.70;;;23.70;75.70;;;;;;5086504;23;20682;-64
2022/04/28 04:16:33;;;;;;;;;;;23.70;75.70;;;;;;5067130;23;20095;-61
2022/04/28 04:18:36;;;;;;;1.45;0.77;;;23.70;75.70;;;;;;5041111;23;19921;-59
2022/04/28 04:20:38;;;;;;;1.38;0.68;;;23.80;75.50;;;;;;5064010;23;20746;-59
2022/04/28 04:22:42;;;;;;;1.15;0.68;;;23.80;75.50;;;;;;5063562;23;20028;-60
2022/04/28 04:24:44;;;;;;;2.00;0.55;;;23.80;75.60;;;;;;5072148;23;20029;-59
2022/04/28 04:26:46;;;;;;;4.85;0.68;;;23.80;75.60;;;;;;5065602;23;20029;-61
2022/04/28 04:28:48;;;;;;;2.63;0.65;;;23.80;75.60;;;;;;5061517;23;20035;-61
2022/04/28 04:33:11;;;;;;;0.93;0.70;;;23.80;75.70;;;;;;5064430;23;20121;-59
2022/04/28 04:35:13;;;;;;;1.55;0.70;;;23.80;75.70;;;;;;5069157;23;20032;-61
2022/04/28 04:37:15;;;;;;;1.23;0.90;;;23.80;75.70;;;;;;5068874;23;20033;-61
2022/04/28 04:39:17;;;;;;;0.88;0.70;;;23.80;75.70;;;;;;5064644;23;20021;-61
2022/04/28 04:41:19;;;;;;;1.05;0.65;;;23.70;75.60;;;;;;5064379;23;20029;-60
2022/04/28 04:43:22;;;;;;;1.13;0.80;;;23.80;75.70;;;;;;5070567;23;20450;-60
2022/04/28 04:45:24;;;;;;;1.70;1.00;;;23.80;75.60;;;;;;5064310;23;20490;-59
2022/04/28 04:47:26;;;;;;;1.73;0.87;;;23.80;76.20;;;;;;5065537;23;20037;-60
2022/04/28 04:49:28;;;;;;;1.48;0.70;;;23.80;75.50;;;;;;5071039;23;20265;-61
2022/04/28 04:51:30;;;;;;;0.80;0.80;;;23.80;75.50;;;;;;5062788;23;20029;-60
2022/04/28 04:53:32;;;;;;;0.80;0.70;;;23.80;75.50;;;;;;5060190;23;20040;-59
2022/04/28 04:55:39;;;;;;;2.28;0.80;;;23.80;75.60;;;;;;5072850;23;20195;-58
2022/04/28 04:57:41;;;;;;;0.77;0.77;;;23.80;75.60;;;;;;5071484;23;20474;-60
2022/04/28 04:59:43;;;;;;;0.60;0.60;;;23.80;75.60;;;;;;5065570;23;20076;-59
2022/04/28 05:01:45;;;;;;;0.70;0.68;;;23.80;75.60;;;;;;5054812;23;20573;-59
2022/04/28 05:03:47;;;;;;;1.25;0.93;;;23.80;75.50;;;;;;5065723;23;20083;-60
2022/04/28 05:05:49;;;;;;;0.90;0.70;;;23.80;75.50;;;;;;5057022;23;20060;-59
2022/04/28 05:07:51;;;;;;;1.48;0.55;;;23.80;75.50;;;;;;5064292;23;20025;-59
2022/04/28 05:09:53;;;;;;;0.55;0.47;;;23.80;75.50;;;;;;5070283;23;20041;-60
2022/04/28 05:11:56;;;;;;;1.38;0.90;;;23.80;75.50;;;;;;5065885;23;20083;-59
2022/04/28 05:13:58;;;;;;;0.93;0.68;;;23.80;75.50;;;;;;5063624;23;20124;-60
2022/04/28 05:16:00;;;;;;;2.45;0.63;;;23.80;75.40;;;;;;5089025;23;20110;-61
2022/04/28 05:18:02;;;;;;;1.50;0.80;;;23.80;75.40;;;;;;5067816;23;20036;-60
2022/04/28 05:20:06;;;;;;;0.50;0.50;;;23.80;75.40;;;;;;5060810;23;20442;-60
2022/04/28 05:22:08;;;;;;;1.67;0.80;;;23.90;75.40;;;;;;5061652;23;20029;-60
2022/04/28 05:24:10;;;;;;;2.22;0.73;;;23.80;75.40;;;;;;5069303;23;20029;-60
2022/04/28 05:26:12;;;;;;;6.00;0.60;;;23.90;75.30;;;;;;5066519;23;20468;-62
2022/04/28 05:28:15;;;;;;;0.45;0.45;;;23.90;75.40;;;;;;5065659;23;20383;-62
2022/04/28 05:30:17;;;;;;;1.10;0.60;;;23.90;75.40;;;;;;5070817;23;20112;-62
2022/04/28 05:32:20;;;;;;;0.90;0.70;;;23.90;75.30;;;;;;5067615;23;20116;-60
2022/04/28 05:34:22;;;;;;;5.13;0.70;;;23.90;75.20;;;;;;5063958;23;20025;-60
2022/04/28 05:36:26;;;;;;;1.00;0.50;;;23.90;75.20;;;;;;5064535;23;20095;-61
2022/04/28 05:38:29;;;;;;;4.22;0.88;;;23.90;75.10;;;;;;5073305;23;20522;-60
2022/04/28 05:40:31;;;;;;;;;;;23.90;75.10;;;;;;5067902;23;20128;-59
2022/04/28 05:47:15;;;;;;;0.77;0.65;;;23.90;75.20;;;;;;5071937;23;20032;-60
2022/04/28 05:49:17;;;;;;;1.23;0.73;;;23.90;75.20;;;;;;5070095;23;20032;-62
2022/04/28 05:51:19;;;;;;;1.58;0.60;;;23.90;75.20;;;;;;5065993;23;20021;-62
2022/04/28 05:53:21;;;;;;;2.50;0.82;;;23.90;75.20;;;;;;5074984;23;20501;-59
2022/04/28 05:55:23;;;;;;;1.33;0.70;;;23.90;75.20;;;;;;5075262;23;20088;-60
2022/04/28 05:57:25;;;;;;;1.13;0.70;;;23.80;75.10;;;;;;5074132;23;20024;-60
2022/04/28 05:59:27;;;;;;;2.25;0.80;;;23.90;75.10;;;;;;5080474;23;20071;-61
2022/04/28 06:01:29;;;;;;;0.63;0.60;;;23.80;75.00;;;;;;5077320;23;20227;-61
2022/04/28 06:03:33;;;;;;;1.35;0.80;;;23.80;75.00;;;;;;5073574;23;20607;-62
2022/04/28 06:05:34;;;;;;;;;;;23.80;75.00;;;;;;5065790;23;20033;-60
2022/04/28 06:07:37;;;;;;;0.65;0.50;;;23.80;75.00;;;;;;5066875;23;19916;-60
2022/04/28 06:09:39;;;;;;;2.15;0.63;;;23.80;74.90;;;;;;5062197;23;20025;-60
2022/04/28 06:11:41;;;;;;;3.13;0.90;;;23.80;74.90;;;;;;5063571;23;20464;-60
2022/04/28 06:13:43;;;;;;;2.35;0.90;;;23.80;74.90;;;;;;5070511;23;20107;-59
2022/04/28 06:15:45;;;;;;;3.05;1.10;;;23.80;75.00;;;;;;5054749;23;20878;-61
2022/04/28 06:17:48;;;;;;;3.50;1.50;;;23.80;75.00;;;;;;5052866;23;20040;-62
2022/04/28 06:19:50;;;;;;;4.40;1.23;;;23.80;75.10;;;;;;5060548;23;20025;-63
2022/04/28 06:21:53;;;;;;;3.15;0.90;;;23.80;75.10;;;;;;5052952;23;20033;-62
2022/04/28 06:23:55;;;;;;;2.75;1.35;;;23.80;75.80;;;;;;5053479;23;20080;-62
2022/04/28 06:25:57;;;;;;;1.55;1.10;;;23.80;75.30;;;;;;5057456;23;20029;-63
2022/04/28 06:27:59;;;;;;;2.03;0.90;;;23.80;75.40;;;;;;5058390;23;20538;-59
2022/04/28 06:30:01;;;;;;;2.03;1.17;;;23.80;75.40;;;;;;5055263;23;20231;-62
2022/04/28 06:32:04;;;;;;;7.85;1.70;;;23.80;75.40;;;;;;5051955;23;20110;-62
2022/04/28 06:34:06;;;;;;;1.58;0.80;;;23.80;75.60;;;;;;5060712;23;20119;-62
2022/04/28 06:36:08;;;;;;;1.83;1.10;;;23.80;75.60;;;;;;5053897;23;20602;-60
2022/04/28 06:38:13;;;;;;;1.20;0.57;;;23.80;75.60;;;;;;5056549;23;20025;-60
2022/04/28 06:40:15;;;;;;;1.33;0.75;;;23.80;75.60;;;;;;5060008;23;20680;-61
2022/04/28 06:42:18;;;;;;;2.10;0.97;;;23.80;75.50;;;;;;5062610;23;20032;-61
2022/04/28 06:44:20;;;;;;;2.20;0.98;;;23.80;75.60;;;;;;5055201;23;20866;-61
2022/04/28 06:46:23;;;;;;;1.55;0.77;;;23.80;75.50;;;;;;5059311;23;20029;-62
2022/04/28 06:48:25;;;;;;;3.20;1.15;;;23.80;75.60;;;;;;5066467;23;20040;-62
2022/04/28 06:50:27;;;;;;;2.83;1.00;;;23.90;75.60;;;;;;5063169;23;20021;-61
2022/04/28 06:52:30;;;;;;;2.55;1.30;;;23.80;75.60;;;;;;5060651;23;20627;-62
2022/04/28 06:54:33;;;;;;;1.67;0.98;;;23.90;75.60;;;;;;5070893;23;20025;-60
2022/04/28 06:56:35;;;;;;;1.58;0.90;;;23.90;75.60;;;;;;5072430;23;20031;-61
2022/04/28 06:58:37;;;;;;;3.58;1.00;;;23.90;75.70;;;;;;5073031;23;20489;-61
2022/04/28 07:00:40;;;;;;;1.33;0.97;;;23.90;75.60;;;;;;5066862;23;20029;-61
2022/04/28 07:02:42;;;;;;;1.70;0.70;;;23.90;75.60;;;;;;5075054;23;20021;-61
2022/04/28 07:04:44;;;;;;;4.63;1.58;;;23.90;75.60;;;;;;5069021;23;20072;-65
2022/04/28 07:06:46;;;;;;;1.85;1.00;;;23.90;75.20;;;;;;5062005;23;20417;-65
2022/04/28 07:08:49;;;;;;;3.58;1.40;;;23.80;75.00;;;;;;5071127;23;20029;-66
2022/04/28 07:10:52;;;;;;;3.97;1.52;;;23.80;74.90;;;;;;5076282;23;20036;-66
2022/04/28 07:12:54;;;;;;;3.15;1.73;;;23.80;75.00;;;;;;5071308;23;20185;-64
2022/04/28 07:14:56;;;;;;;8.60;1.77;;;23.70;75.00;;;;;;5076492;23;20473;-63
2022/04/28 07:16:58;;;;;;;4.13;1.67;;;23.70;75.10;;;;;;5077818;23;20112;-61
2022/04/28 07:19:03;;;;;;;3.13;1.60;;;23.70;75.40;;;;;;5077694;23;20079;-61
2022/04/28 07:21:22;;;;;;;5.10;1.40;;;23.70;75.60;;;;;;5069408;23;20029;-61
2022/04/28 07:23:24;;;;;;;1.77;1.08;;;23.70;75.80;;;;;;5076484;23;20416;-62
2022/04/28 07:25:28;;;;;;;4.57;1.25;;;23.70;76.00;;;;;;5076180;23;20021;-63
2022/04/28 07:27:30;;;;;;;4.68;1.40;;;23.70;75.90;;;;;;5081213;23;20794;-63
2022/04/28 07:29:32;;;;;;;2.10;1.00;;;23.70;76.00;;;;;;5079317;23;20071;-61
2022/04/28 07:31:34;;;;;;;3.92;1.20;;;23.70;76.00;;;;;;5069266;23;20120;-63
2022/04/28 07:33:36;;;;;;;4.50;1.20;;;23.70;76.00;;;;;;5073720;23;20137;-64
2022/04/28 07:35:39;;;;;;;3.70;1.10;;;23.70;76.10;;;;;;5070432;23;20025;-62
2022/04/28 07:37:41;;;;;;;2.05;0.90;;;23.70;76.10;;;;;;5068479;23;20267;-62
2022/04/28 07:39:43;;;;;;;9.77;1.70;;;23.70;76.00;;;;;;5072938;23;20021;-61
2022/04/28 07:41:46;;;;;;;3.35;1.52;;;23.70;76.10;;;;;;5068674;23;20027;-62
2022/04/28 07:43:48;;;;;;;5.15;1.17;;;23.70;76.20;;;;;;5067745;23;20029;-62
2022/04/28 07:45:50;;;;;;;2.72;0.82;;;23.70;76.20;;;;;;5067624;23;20552;-62
2022/04/28 07:47:52;;;;;;;2.15;0.90;;;23.70;76.20;;;;;;5071320;23;20852;-61
2022/04/28 07:49:55;;;;;;;4.40;0.90;;;23.70;76.20;;;;;;5066642;23;20032;-60
2022/04/28 07:51:57;;;;;;;1.88;1.00;;;23.70;76.20;;;;;;5068309;23;20100;-59
2022/04/28 07:54:01;;;;;;;1.65;0.80;;;23.80;76.20;;;;;;5096586;23;20087;-60
2022/04/28 07:56:18;;;;;;;2.80;0.90;;;23.80;76.20;;;;;;5072935;23;20965;-60
2022/04/28 07:58:20;;;;;;;0.93;0.65;;;23.80;76.20;;;;;;5074580;23;20029;-64
2022/04/28 08:00:22;;;;;;;2.28;0.80;;;23.80;76.10;;;;;;5069988;23;20036;-65
2022/04/28 08:02:24;;;;;;;1.55;0.65;;;23.80;76.00;;;;;;5068358;23;20037;-64
2022/04/28 08:04:27;;;;;;;1.77;0.70;;;23.80;76.50;;;;;;5072972;23;20032;-63
2022/04/28 08:06:29;;;;;;;1.20;0.67;;;23.80;75.90;;;;;;5073564;23;20508;-65
2022/04/28 08:08:31;;;;;;;1.98;0.93;;;23.80;75.90;;;;;;5067639;23;20091;-64
2022/04/28 08:10:33;;;;;;;10.15;1.20;;;23.80;75.80;;;;;;5072779;23;20033;-62
2022/04/28 08:12:35;;;;;;;4.65;0.80;;;23.80;75.80;;;;;;5073713;23;20132;-63
2022/04/28 08:14:39;;;;;;;8.40;1.20;;;23.80;75.80;;;;;;5065789;23;20025;-64
2022/04/28 08:16:41;;;;;;;3.47;0.90;;;23.90;75.90;;;;;;5065489;23;20086;-62
2022/04/28 08:18:43;;;;;;;1.30;0.90;;;23.90;76.00;;;;;;5076013;23;20032;-62
2022/04/28 08:20:46;;;;;;;1.88;0.85;;;23.80;75.90;;;;;;5067795;23;21058;-63
2022/04/28 08:22:48;;;;;;;1.77;0.80;;;23.90;75.90;;;;;;5066132;23;20131;-62
2022/04/28 08:24:50;;;;;;;1.42;0.63;;;23.90;75.90;;;;;;5072182;23;20554;-64
2022/04/28 08:26:55;;;;;;;1.50;0.90;;;23.90;75.80;;;;;;5071994;23;20032;-64
2022/04/28 08:28:57;;;;;;;0.90;0.70;;;23.90;75.80;;;;;;5071782;23;20035;-63
2022/04/28 08:30:59;;;;;;;2.35;1.08;;;23.90;75.80;;;;;;5067843;23;20040;-65
2022/04/28 08:33:03;;;;;;;2.42;0.73;;;23.90;75.80;;;;;;5074068;23;21037;-64
2022/04/28 08:35:05;;;;;;;1.10;0.65;;;23.90;75.70;;;;;;5070315;23;20031;-59
2022/04/28 08:37:08;;;;;;;1.10;0.73;;;24.00;75.70;;;;;;5065198;23;20993;-63
2022/04/28 08:39:11;;;;;;;1.67;0.80;;;23.90;75.60;;;;;;5073750;23;20127;-63
2022/04/28 08:41:13;;;;;;;;;;;24.00;75.50;;;;;;5069208;23;20029;-64
2022/04/28 08:43:17;;;;;;;2.10;0.63;;;24.00;75.60;;;;;;5066492;23;19920;-63
2022/04/28 08:45:24;;;;;;;1.92;0.82;;;24.00;75.40;;;;;;5066689;23;20025;-65
2022/04/28 08:47:26;;;;;;;0.77;0.60;;;24.00;75.40;;;;;;5072345;23;20814;-65
2022/04/28 08:49:31;;;;;;;3.72;1.17;;;24.00;75.30;;;;;;5071295;23;20947;-66
2022/04/28 08:51:34;;;;;;;1.33;0.85;;;24.00;75.30;;;;;;5065924;23;20033;-67
2022/04/28 08:53:36;;;;;;;0.77;0.57;;;24.00;75.20;;;;;;5066284;23;20506;-65
2022/04/28 08:55:38;;;;;;;1.33;0.70;;;24.10;75.30;;;;;;5074764;23;20029;-65
2022/04/28 08:57:40;;;;;;;1.17;0.90;;;24.10;75.30;;;;;;5067862;23;21032;-63
2022/04/28 08:59:44;;;;;;;0.80;0.70;;;24.10;75.30;;;;;;5066365;23;20029;-61
2022/04/28 09:01:46;;;;;;;0.80;0.50;;;24.10;75.20;;;;;;5061170;23;20029;-61
2022/04/28 09:03:48;;;;;;;1.00;0.73;;;24.00;75.20;;;;;;5069686;23;20017;-61
2022/04/28 09:05:51;;;;;;;0.85;0.63;;;24.00;75.20;;;;;;5063375;23;20033;-61
2022/04/28 09:07:53;;;;;;;;;;;24.10;75.20;;;;;;5068802;23;20040;-64
2022/04/28 09:09:55;;;;;;;2.30;0.80;;;24.00;75.20;;;;;;5071518;23;20370;-63
2022/04/28 09:12:04;;;;;;;0.95;0.80;;;24.10;75.20;;;;;;5066871;23;20025;-62
2022/04/28 09:14:20;;;;;;;1.23;0.77;;;24.00;75.10;;;;;;5066997;23;20025;-63
2022/04/28 09:16:25;;;;;;;1.52;0.88;;;24.10;75.20;;;;;;5067806;23;20128;-64
2022/04/28 09:18:28;;;;;;;1.42;0.88;;;24.10;75.20;;;;;;5066574;23;20478;-62
2022/04/28 09:20:30;;;;;;;2.38;1.20;;;24.10;75.10;;;;;;5070054;23;20029;-64
2022/04/28 09:22:32;;;;;;;1.73;0.90;;;24.10;75.10;;;;;;5073108;23;21019;-65
2022/04/28 09:24:34;;;;;;;1.08;0.88;;;24.00;75.00;;;;;;5067598;23;20271;-64
2022/04/28 09:26:38;;;;;;;1.43;0.80;;;24.00;75.00;;;;;;5067592;23;20092;-62
2022/04/28 09:28:40;;;;;;;0.85;0.70;;;24.10;75.10;;;;;;5070999;23;20041;-64
2022/04/28 09:30:49;;;;;;;1.17;0.87;;;24.00;75.20;;;;;;5069940;23;20025;-63
2022/04/28 09:32:52;;;;;;;4.00;0.68;;;24.00;74.60;;;;;;5066474;23;20025;-63
2022/04/28 09:34:55;;;;;;;1.27;1.13;;;24.00;75.30;;;;;;5068380;23;20775;-65
2022/04/28 09:37:02;;;;;;;0.85;0.73;;;24.00;75.30;;;;;;5092730;23;20270;-64
2022/04/28 09:39:05;;;;;;;1.45;0.88;;;24.00;75.30;;;;;;5069817;23;20554;-63
2022/04/28 09:43:33;;;;;;;1.38;0.95;;;24.00;75.40;;;;;;5071805;23;20025;-65
2022/04/28 09:45:39;;;;;;;0.85;0.85;;;24.00;75.40;;;;;;5067574;23;21102;-64
2022/04/28 09:47:42;;;;;;;0.82;0.80;;;24.00;76.00;;;;;;5067628;23;20025;-62
2022/04/28 09:50:07;;;;;;;1.52;0.70;;;24.00;75.40;;;;;;5068285;23;20555;-62
2022/04/28 09:52:12;;;;;;;1.80;0.85;;;24.00;75.30;;;;;;5061290;23;20040;-64
2022/04/28 09:54:17;;;;;;;0.68;0.68;;;24.00;75.20;;;;;;5066589;23;20064;-63
2022/04/28 09:56:28;;;;;;;2.85;1.15;;;24.00;75.10;;;;;;5067219;23;20359;-64
2022/04/28 09:58:31;;;;;;;2.00;0.98;;;24.00;75.10;;;;;;5068833;23;20033;-63
2022/04/28 10:00:33;;;;;;;1.15;0.80;;;24.10;75.10;;;;;;5072823;23;20040;-64
2022/04/28 10:02:37;;;;;;;0.88;0.63;;;24.10;75.10;;;;;;5062304;23;20025;-61
2022/04/28 10:04:41;;;;;;;1.17;0.90;;;24.10;75.00;;;;;;5070250;23;20115;-63
2022/04/28 10:06:44;;;;;;;1.33;0.70;;;24.10;75.10;;;;;;5068339;23;20025;-62
2022/04/28 10:08:47;;;;;;;0.85;0.70;;;24.10;75.00;;;;;;5071720;23;21004;-62
2022/04/28 10:10:51;;;;;;;1.08;0.93;;;24.10;75.00;;;;;;5064670;23;20666;-62
2022/04/28 10:12:57;;;;;;;0.80;0.80;;;24.10;75.00;;;;;;5066316;23;20128;-64
2022/04/28 10:15:03;;;;;;;1.55;0.82;;;24.10;74.90;;;;;;5071139;23;20024;-62
2022/04/28 10:17:11;;;;;;;2.03;1.00;;;24.10;75.00;;;;;;5067994;23;20033;-62
2022/04/28 10:19:38;;;;;;;1.25;0.88;;;24.10;75.10;;;;;;5069293;23;21194;-65
2022/04/28 10:22:01;;;;;;;0.60;0.60;;;24.10;75.10;;;;;;5061109;23;20035;-60
2022/04/28 10:33:42;;;;;;;0.70;0.68;;;24.10;75.20;;;;;;5071334;23;20029;-62
2022/04/28 10:35:50;;;;;;;0.82;0.70;;;24.10;75.30;;;;;;5070570;23;20055;-65
2022/04/28 10:37:52;;;;;;;1.90;0.80;;;24.00;75.30;;;;;;5066383;23;20021;-63
2022/04/28 10:39:56;;;;;;;4.00;1.03;;;24.00;75.30;;;;;;5068020;23;20773;-66
2022/04/28 10:41:58;;;;;;;1.63;1.20;;;24.10;75.30;;;;;;5065574;23;20250;-62
2022/04/28 10:44:15;;;;;;;2.60;1.00;;;24.00;75.30;;;;;;5071953;23;20893;-65
2022/04/28 10:46:22;;;;;;;2.80;1.20;;;24.00;75.40;;;;;;5070036;23;20032;-64
2022/04/28 10:48:44;;;;;;;1.50;1.00;;;24.00;75.30;;;;;;5069782;23;21144;-61
2022/04/28 10:51:02;;;;;;;0.93;0.77;;;24.10;75.40;;;;;;5069636;23;20025;-62
2022/04/28 10:53:05;;;;;;;0.90;0.75;;;24.10;75.40;;;;;;5063869;23;20033;-63
2022/04/28 10:55:14;;;;;;;1.85;1.10;;;24.00;75.40;;;;;;5071275;23;20025;-63
2022/04/28 10:57:16;;;;;;;2.85;0.90;;;24.00;75.50;;;;;;5071566;23;20135;-63
2022/04/28 10:59:32;;;;;;;3.17;1.13;;;24.00;75.50;;;;;;5067546;23;20024;-65
2022/04/28 11:01:34;;;;;;;1.10;0.90;;;24.00;75.60;;;;;;5067237;23;20029;-64
2022/04/28 11:03:56;;;;;;;2.85;1.15;;;24.00;75.70;;;;;;5066334;23;20025;-64
2022/04/28 11:06:11;;;;;;;3.63;1.00;;;24.00;75.60;;;;;;5063678;23;20421;-63
2022/04/28 11:08:24;;;;;;;1.05;0.80;;;24.00;75.60;;;;;;5069990;23;20233;-63
2022/04/28 11:10:27;;;;;;;1.73;1.05;;;24.00;75.50;;;;;;5066098;23;20583;-63
2022/04/28 11:12:36;;;;;;;;;;;24.00;75.50;;;;;;5065324;23;20095;-64
2022/04/28 11:15:02;;;;;;;2.03;1.00;;;24.00;75.50;;;;;;5067832;23;20449;-63
2022/04/28 11:17:05;;;;;;;1.05;0.95;;;24.00;75.50;;;;;;5073639;23;20055;-66